sensor_id;sensor_type;location;lat;lon;timestamp;temperature;humidity
3406;DHT22;10008;48.682;9.016;2023-08-12T00:00:09;19.60;99.90
3406;DHT22;10008;48.682;9.016;2023-08-12T00:02:40;19.60;99.90
3406;DHT22;10008;48.682;9.016;2023-08-12T00:05:06;19.70;99.90
3406;DHT22;10008;48.682;9.016;2023-08-12T00:07:33;19.60;99.90
3406;DHT22;10008;48.682;9.016;2023-08-12T00:10:00;19.70;99.90
3406;DHT22;10008;48.682;9.016;2023-08-12T00:12:26;19.60;99.90
3406;DHT22;10008;48.682;9.016;2023-08-12T00:14:52;19.50;99.90
3406;DHT22;10008;48.682;9.016;2023-08-12T00:17:18;19.50;99.90
3406;DHT22;10008;48.682;9.016;2023-08-12T00:19:44;19.40;99.90
3406;DHT22;10008;48.682;9.016;2023-08-12T00:22:09;19.40;99.90
3406;DHT22;10008;48.682;9.016;2023-08-12T00:24:35;19.40;99.90
3406;DHT22;10008;48.682;9.016;2023-08-12T00:27:01;19.40;99.90
3406;DHT22;10008;48.682;9.016;2023-08-12T00:29:27;19.40;99.90
3406;DHT22;10008;48.682;9.016;2023-08-12T00:31:52;19.40;99.90
3406;DHT22;10008;48.682;9.016;2023-08-12T00:34:18;19.30;99.90
3406;DHT22;10008;48.682;9.016;2023-08-12T00:36:44;19.30;99.90
3406;DHT22;10008;48.682;9.016;2023-08-12T00:39:10;19.20;99.90
3406;DHT22;10008;48.682;9.016;2023-08-12T00:41:36;19.20;99.90
3406;DHT22;10008;48.682;9.016;2023-08-12T00:44:02;19.10;99.90
3406;DHT22;10008;48.682;9.016;2023-08-12T00:46:27;19.10;99.90
3406;DHT22;10008;48.682;9.016;2023-08-12T00:48:54;19.10;99.90
3406;DHT22;10008;48.682;9.016;2023-08-12T00:51:20;19.10;99.90
3406;DHT22;10008;48.682;9.016;2023-08-12T00:53:46;19.10;99.90
3406;DHT22;10008;48.682;9.016;2023-08-12T00:56:12;19.00;99.90
3406;DHT22;10008;48.682;9.016;2023-08-12T00:58:39;19.00;99.90
3406;DHT22;10008;48.682;9.016;2023-08-12T01:01:05;18.90;99.90
3406;DHT22;10008;48.682;9.016;2023-08-12T01:03:31;18.90;99.90
3406;DHT22;10008;48.682;9.016;2023-08-12T01:05:57;18.90;99.90
3406;DHT22;10008;48.682;9.016;2023-08-12T01:08:30;18.90;99.90
3406;DHT22;10008;48.682;9.016;2023-08-12T01:11:03;18.90;99.90
3406;DHT22;10008;48.682;9.016;2023-08-12T01:16:49;19.00;99.90
3406;DHT22;10008;48.682;9.016;2023-08-12T01:19:37;19.00;99.90
3406;DHT22;10008;48.682;9.016;2023-08-12T01:22:09;19.00;99.90
3406;DHT22;10008;48.682;9.016;2023-08-12T01:24:42;18.90;99.90
3406;DHT22;10008;48.682;9.016;2023-08-12T01:27:09;19.00;99.90
3406;DHT22;10008;48.682;9.016;2023-08-12T01:29:41;19.00;99.90
3406;DHT22;10008;48.682;9.016;2023-08-12T01:32:13;19.00;99.90
3406;DHT22;10008;48.682;9.016;2023-08-12T01:35:14;19.00;99.90
3406;DHT22;10008;48.682;9.016;2023-08-12T01:37:43;19.00;99.90
3406;DHT22;10008;48.682;9.016;2023-08-12T01:40:11;19.00;99.90
3406;DHT22;10008;48.682;9.016;2023-08-12T01:42:39;19.10;99.90
3406;DHT22;10008;48.682;9.016;2023-08-12T01:45:06;19.20;99.90
3406;DHT22;10008;48.682;9.016;2023-08-12T01:47:32;19.20;99.90
3406;DHT22;10008;48.682;9.016;2023-08-12T01:49:58;19.20;99.90
3406;DHT22;10008;48.682;9.016;2023-08-12T01:52:24;19.10;99.90
3406;DHT22;10008;48.682;9.016;2023-08-12T01:54:50;19.10;99.90
3406;DHT22;10008;48.682;9.016;2023-08-12T01:57:16;19.10;99.90
3406;DHT22;10008;48.682;9.016;2023-08-12T01:59:42;19.10;99.90
3406;DHT22;10008;48.682;9.016;2023-08-12T02:02:10;19.10;99.90
3406;DHT22;10008;48.682;9.016;2023-08-12T02:04:36;19.10;99.90
3406;DHT22;10008;48.682;9.016;2023-08-12T02:07:03;19.10;99.90
3406;DHT22;10008;48.682;9.016;2023-08-12T02:09:29;19.10;99.90
3406;DHT22;10008;48.682;9.016;2023-08-12T02:11:56;19.10;99.90
3406;DHT22;10008;48.682;9.016;2023-08-12T02:14:22;19.30;99.90
3406;DHT22;10008;48.682;9.016;2023-08-12T02:16:48;19.20;99.90
3406;DHT22;10008;48.682;9.016;2023-08-12T02:19:14;19.20;99.90
3406;DHT22;10008;48.682;9.016;2023-08-12T02:21:41;19.30;99.90
3406;DHT22;10008;48.682;9.016;2023-08-12T02:24:07;19.20;99.90
3406;DHT22;10008;48.682;9.016;2023-08-12T02:26:33;19.20;99.90
3406;DHT22;10008;48.682;9.016;2023-08-12T02:28:59;19.20;99.90
3406;DHT22;10008;48.682;9.016;2023-08-12T02:31:25;19.30;99.90
3406;DHT22;10008;48.682;9.016;2023-08-12T02:33:51;19.30;99.90
3406;DHT22;10008;48.682;9.016;2023-08-12T02:36:16;19.20;99.90
3406;DHT22;10008;48.682;9.016;2023-08-12T02:38:42;19.30;99.90
3406;DHT22;10008;48.682;9.016;2023-08-12T02:41:08;19.30;99.90
3406;DHT22;10008;48.682;9.016;2023-08-12T02:43:34;19.40;99.90
3406;DHT22;10008;48.682;9.016;2023-08-12T02:46:02;19.30;99.90
3406;DHT22;10008;48.682;9.016;2023-08-12T02:48:27;19.50;99.90
3406;DHT22;10008;48.682;9.016;2023-08-12T02:50:53;19.50;99.90
3406;DHT22;10008;48.682;9.016;2023-08-12T02:53:19;19.60;99.90
3406;DHT22;10008;48.682;9.016;2023-08-12T02:55:45;19.60;99.90
3406;DHT22;10008;48.682;9.016;2023-08-12T02:58:11;19.60;99.90
3406;DHT22;10008;48.682;9.016;2023-08-12T03:00:37;19.60;99.90
3406;DHT22;10008;48.682;9.016;2023-08-12T03:03:03;19.50;99.90
3406;DHT22;10008;48.682;9.016;2023-08-12T03:05:30;19.50;99.90
3406;DHT22;10008;48.682;9.016;2023-08-12T03:07:56;19.50;99.90
3406;DHT22;10008;48.682;9.016;2023-08-12T03:10:23;19.50;99.90
3406;DHT22;10008;48.682;9.016;2023-08-12T03:12:48;19.60;99.90
3406;DHT22;10008;48.682;9.016;2023-08-12T03:15:14;19.60;99.90
3406;DHT22;10008;48.682;9.016;2023-08-12T03:17:40;19.60;99.90
3406;DHT22;10008;48.682;9.016;2023-08-12T03:20:08;19.50;99.90
3406;DHT22;10008;48.682;9.016;2023-08-12T03:22:36;19.50;99.90
3406;DHT22;10008;48.682;9.016;2023-08-12T03:25:03;19.50;99.90
3406;DHT22;10008;48.682;9.016;2023-08-12T03:27:29;19.40;99.90
3406;DHT22;10008;48.682;9.016;2023-08-12T03:29:55;19.40;99.90
3406;DHT22;10008;48.682;9.016;2023-08-12T03:32:21;19.30;99.90
3406;DHT22;10008;48.682;9.016;2023-08-12T03:34:47;19.30;99.90
3406;DHT22;10008;48.682;9.016;2023-08-12T03:37:13;19.30;99.90
3406;DHT22;10008;48.682;9.016;2023-08-12T03:39:39;19.40;99.90
3406;DHT22;10008;48.682;9.016;2023-08-12T03:42:05;19.40;99.90
3406;DHT22;10008;48.682;9.016;2023-08-12T03:44:31;19.50;99.90
3406;DHT22;10008;48.682;9.016;2023-08-12T03:46:57;19.60;99.90
3406;DHT22;10008;48.682;9.016;2023-08-12T03:49:23;19.60;99.90
3406;DHT22;10008;48.682;9.016;2023-08-12T03:51:49;19.60;99.90
3406;DHT22;10008;48.682;9.016;2023-08-12T03:54:14;19.70;99.90
3406;DHT22;10008;48.682;9.016;2023-08-12T03:56:40;19.80;99.90
3406;DHT22;10008;48.682;9.016;2023-08-12T03:59:06;19.80;99.90
3406;DHT22;10008;48.682;9.016;2023-08-12T04:01:31;19.70;99.90
3406;DHT22;10008;48.682;9.016;2023-08-12T04:03:57;19.60;99.90
3406;DHT22;10008;48.682;9.016;2023-08-12T04:06:23;19.70;99.90
3406;DHT22;10008;48.682;9.016;2023-08-12T04:08:49;19.70;99.90
3406;DHT22;10008;48.682;9.016;2023-08-12T04:11:14;19.70;99.90
3406;DHT22;10008;48.682;9.016;2023-08-12T04:13:40;19.80;99.90
3406;DHT22;10008;48.682;9.016;2023-08-12T04:16:06;19.80;99.90
3406;DHT22;10008;48.682;9.016;2023-08-12T04:18:32;19.90;99.90
3406;DHT22;10008;48.682;9.016;2023-08-12T04:20:59;19.90;99.90
3406;DHT22;10008;48.682;9.016;2023-08-12T04:23:25;19.90;99.90
3406;DHT22;10008;48.682;9.016;2023-08-12T04:25:52;19.90;99.90
3406;DHT22;10008;48.682;9.016;2023-08-12T04:28:19;19.90;99.90
3406;DHT22;10008;48.682;9.016;2023-08-12T04:30:48;20.00;99.90
3406;DHT22;10008;48.682;9.016;2023-08-12T04:33:16;20.10;99.90
3406;DHT22;10008;48.682;9.016;2023-08-12T04:35:42;20.00;99.90
3406;DHT22;10008;48.682;9.016;2023-08-12T04:38:09;20.00;99.90
3406;DHT22;10008;48.682;9.016;2023-08-12T04:40:39;20.00;99.90
3406;DHT22;10008;48.682;9.016;2023-08-12T04:43:07;20.00;99.90
3406;DHT22;10008;48.682;9.016;2023-08-12T04:45:34;20.10;99.90
3406;DHT22;10008;48.682;9.016;2023-08-12T04:48:00;20.10;99.90
3406;DHT22;10008;48.682;9.016;2023-08-12T04:50:30;20.10;99.90
3406;DHT22;10008;48.682;9.016;2023-08-12T04:52:56;20.20;99.90
3406;DHT22;10008;48.682;9.016;2023-08-12T04:55:24;20.20;99.90
3406;DHT22;10008;48.682;9.016;2023-08-12T04:57:51;20.30;99.90
3406;DHT22;10008;48.682;9.016;2023-08-12T05:00:16;20.20;99.90
3406;DHT22;10008;48.682;9.016;2023-08-12T05:02:43;20.20;99.90
3406;DHT22;10008;48.682;9.016;2023-08-12T05:05:09;20.20;99.90
3406;DHT22;10008;48.682;9.016;2023-08-12T05:07:36;20.30;99.90
3406;DHT22;10008;48.682;9.016;2023-08-12T05:10:02;20.40;99.90
3406;DHT22;10008;48.682;9.016;2023-08-12T05:12:29;20.40;99.90
3406;DHT22;10008;48.682;9.016;2023-08-12T05:14:55;20.40;99.90
3406;DHT22;10008;48.682;9.016;2023-08-12T05:17:21;20.40;99.90
3406;DHT22;10008;48.682;9.016;2023-08-12T05:19:47;20.40;99.90
3406;DHT22;10008;48.682;9.016;2023-08-12T05:22:13;20.40;99.90
3406;DHT22;10008;48.682;9.016;2023-08-12T05:24:39;20.40;99.90
3406;DHT22;10008;48.682;9.016;2023-08-12T05:27:04;20.40;99.90
3406;DHT22;10008;48.682;9.016;2023-08-12T05:29:30;20.50;99.90
3406;DHT22;10008;48.682;9.016;2023-08-12T05:31:56;20.50;99.90
3406;DHT22;10008;48.682;9.016;2023-08-12T05:34:22;20.50;99.90
3406;DHT22;10008;48.682;9.016;2023-08-12T05:36:48;20.40;99.90
3406;DHT22;10008;48.682;9.016;2023-08-12T05:39:14;20.40;99.90
3406;DHT22;10008;48.682;9.016;2023-08-12T05:41:41;20.60;99.90
3406;DHT22;10008;48.682;9.016;2023-08-12T05:44:07;20.60;99.90
3406;DHT22;10008;48.682;9.016;2023-08-12T05:46:32;20.60;99.90
3406;DHT22;10008;48.682;9.016;2023-08-12T05:48:58;20.70;99.90
3406;DHT22;10008;48.682;9.016;2023-08-12T05:51:24;20.90;99.90
3406;DHT22;10008;48.682;9.016;2023-08-12T05:53:50;20.80;99.90
3406;DHT22;10008;48.682;9.016;2023-08-12T05:56:15;20.80;99.90
3406;DHT22;10008;48.682;9.016;2023-08-12T05:58:41;20.90;99.90
3406;DHT22;10008;48.682;9.016;2023-08-12T06:01:07;20.90;99.90
3406;DHT22;10008;48.682;9.016;2023-08-12T06:03:33;21.00;99.90
3406;DHT22;10008;48.682;9.016;2023-08-12T06:05:58;21.10;99.90
3406;DHT22;10008;48.682;9.016;2023-08-12T06:08:24;21.10;99.90
3406;DHT22;10008;48.682;9.016;2023-08-12T06:10:50;21.10;99.90
3406;DHT22;10008;48.682;9.016;2023-08-12T06:13:15;21.30;99.90
3406;DHT22;10008;48.682;9.016;2023-08-12T06:15:41;21.70;99.90
3406;DHT22;10008;48.682;9.016;2023-08-12T06:18:07;22.60;99.90
3406;DHT22;10008;48.682;9.016;2023-08-12T06:20:32;22.90;99.90
3406;DHT22;10008;48.682;9.016;2023-08-12T06:22:58;23.10;99.90
3406;DHT22;10008;48.682;9.016;2023-08-12T06:25:24;23.00;99.90
3406;DHT22;10008;48.682;9.016;2023-08-12T06:27:50;23.00;99.90
3406;DHT22;10008;48.682;9.016;2023-08-12T06:30:15;23.70;99.90
3406;DHT22;10008;48.682;9.016;2023-08-12T06:32:41;24.10;99.90
3406;DHT22;10008;48.682;9.016;2023-08-12T06:35:07;24.00;99.90
3406;DHT22;10008;48.682;9.016;2023-08-12T06:37:33;25.10;99.90
3406;DHT22;10008;48.682;9.016;2023-08-12T06:39:59;27.00;99.90
3406;DHT22;10008;48.682;9.016;2023-08-12T06:42:24;28.70;99.90
3406;DHT22;10008;48.682;9.016;2023-08-12T06:44:55;29.90;99.90
3406;DHT22;10008;48.682;9.016;2023-08-12T06:47:21;31.50;97.30
3406;DHT22;10008;48.682;9.016;2023-08-12T06:49:47;32.70;93.70
3406;DHT22;10008;48.682;9.016;2023-08-12T06:52:12;32.70;92.80
3406;DHT22;10008;48.682;9.016;2023-08-12T06:54:38;32.90;91.60
3406;DHT22;10008;48.682;9.016;2023-08-12T06:57:04;33.80;90.60
3406;DHT22;10008;48.682;9.016;2023-08-12T06:59:30;34.40;87.80
3406;DHT22;10008;48.682;9.016;2023-08-12T07:01:55;34.80;84.90
3406;DHT22;10008;48.682;9.016;2023-08-12T07:04:21;34.60;84.40
3406;DHT22;10008;48.682;9.016;2023-08-12T07:06:47;34.40;84.10
3406;DHT22;10008;48.682;9.016;2023-08-12T07:09:13;33.80;83.90
3406;DHT22;10008;48.682;9.016;2023-08-12T07:11:40;32.80;86.10
3406;DHT22;10008;48.682;9.016;2023-08-12T07:14:05;33.80;86.10
3406;DHT22;10008;48.682;9.016;2023-08-12T07:16:31;34.70;83.50
3406;DHT22;10008;48.682;9.016;2023-08-12T07:18:57;35.10;82.10
3406;DHT22;10008;48.682;9.016;2023-08-12T07:21:23;35.30;82.10
3406;DHT22;10008;48.682;9.016;2023-08-12T07:23:48;35.40;80.70
3406;DHT22;10008;48.682;9.016;2023-08-12T07:26:14;35.50;80.60
3406;DHT22;10008;48.682;9.016;2023-08-12T07:28:41;35.60;78.40
3406;DHT22;10008;48.682;9.016;2023-08-12T07:31:07;35.10;78.80
3406;DHT22;10008;48.682;9.016;2023-08-12T07:33:32;34.40;78.80
3406;DHT22;10008;48.682;9.016;2023-08-12T07:35:58;34.50;80.40
3406;DHT22;10008;48.682;9.016;2023-08-12T07:38:24;34.60;79.40
3406;DHT22;10008;48.682;9.016;2023-08-12T07:40:50;33.70;77.70
3406;DHT22;10008;48.682;9.016;2023-08-12T07:43:16;32.70;80.40
3406;DHT22;10008;48.682;9.016;2023-08-12T07:45:41;32.20;82.50
3406;DHT22;10008;48.682;9.016;2023-08-12T07:48:07;31.30;82.90
3406;DHT22;10008;48.682;9.016;2023-08-12T07:50:33;31.30;86.00
3406;DHT22;10008;48.682;9.016;2023-08-12T07:52:59;31.00;85.50
3406;DHT22;10008;48.682;9.016;2023-08-12T07:55:24;31.30;86.90
3406;DHT22;10008;48.682;9.016;2023-08-12T07:57:50;32.20;83.90
3406;DHT22;10008;48.682;9.016;2023-08-12T08:00:16;32.50;82.10
3406;DHT22;10008;48.682;9.016;2023-08-12T08:02:42;33.20;81.50
3406;DHT22;10008;48.682;9.016;2023-08-12T08:05:07;34.10;78.70
3406;DHT22;10008;48.682;9.016;2023-08-12T08:07:33;34.50;78.40
3406;DHT22;10008;48.682;9.016;2023-08-12T08:09:59;34.50;79.00
3406;DHT22;10008;48.682;9.016;2023-08-12T08:12:26;33.60;79.50
3406;DHT22;10008;48.682;9.016;2023-08-12T08:14:52;33.40;78.00
3406;DHT22;10008;48.682;9.016;2023-08-12T08:17:17;34.10;81.70
3406;DHT22;10008;48.682;9.016;2023-08-12T08:19:43;34.50;80.40
3406;DHT22;10008;48.682;9.016;2023-08-12T08:22:09;35.20;78.90
3406;DHT22;10008;48.682;9.016;2023-08-12T08:24:34;35.70;73.60
3406;DHT22;10008;48.682;9.016;2023-08-12T08:27:00;35.00;75.50
3406;DHT22;10008;48.682;9.016;2023-08-12T08:29:26;35.10;73.40
3406;DHT22;10008;48.682;9.016;2023-08-12T08:31:52;35.10;75.70
3406;DHT22;10008;48.682;9.016;2023-08-12T08:34:17;35.20;72.50
3406;DHT22;10008;48.682;9.016;2023-08-12T08:36:43;35.10;71.90
3406;DHT22;10008;48.682;9.016;2023-08-12T08:39:09;35.10;73.90
3406;DHT22;10008;48.682;9.016;2023-08-12T08:41:39;35.00;72.40
3406;DHT22;10008;48.682;9.016;2023-08-12T08:44:07;35.00;74.50
3406;DHT22;10008;48.682;9.016;2023-08-12T08:46:34;34.60;72.00
3406;DHT22;10008;48.682;9.016;2023-08-12T08:49:00;34.40;75.80
3406;DHT22;10008;48.682;9.016;2023-08-12T08:51:32;34.90;74.30
3406;DHT22;10008;48.682;9.016;2023-08-12T08:53:58;35.60;74.40
3406;DHT22;10008;48.682;9.016;2023-08-12T08:56:24;35.90;69.40
3406;DHT22;10008;48.682;9.016;2023-08-12T08:58:50;36.40;71.20
3406;DHT22;10008;48.682;9.016;2023-08-12T09:01:20;36.80;69.90
3406;DHT22;10008;48.682;9.016;2023-08-12T09:03:48;36.50;69.20
3406;DHT22;10008;48.682;9.016;2023-08-12T09:06:16;36.20;69.40
3406;DHT22;10008;48.682;9.016;2023-08-12T09:08:45;35.30;70.50
3406;DHT22;10008;48.682;9.016;2023-08-12T09:11:13;34.20;73.30
3406;DHT22;10008;48.682;9.016;2023-08-12T09:13:40;34.10;72.90
3406;DHT22;10008;48.682;9.016;2023-08-12T09:16:05;33.50;75.80
3406;DHT22;10008;48.682;9.016;2023-08-12T09:18:31;32.90;76.60
3406;DHT22;10008;48.682;9.016;2023-08-12T09:20:57;32.70;76.30
3406;DHT22;10008;48.682;9.016;2023-08-12T09:23:23;32.80;78.50
3406;DHT22;10008;48.682;9.016;2023-08-12T09:25:51;33.20;77.70
3406;DHT22;10008;48.682;9.016;2023-08-12T09:28:17;32.90;76.10
3406;DHT22;10008;48.682;9.016;2023-08-12T09:30:49;32.40;79.70
3406;DHT22;10008;48.682;9.016;2023-08-12T09:33:15;32.00;77.70
3406;DHT22;10008;48.682;9.016;2023-08-12T09:35:41;32.00;83.00
3406;DHT22;10008;48.682;9.016;2023-08-12T09:38:12;32.00;81.20
3406;DHT22;10008;48.682;9.016;2023-08-12T09:40:39;31.70;81.60
3406;DHT22;10008;48.682;9.016;2023-08-12T09:43:05;31.10;82.10
3406;DHT22;10008;48.682;9.016;2023-08-12T09:45:32;30.60;83.70
3406;DHT22;10008;48.682;9.016;2023-08-12T09:47:58;29.80;86.40
3406;DHT22;10008;48.682;9.016;2023-08-12T09:50:25;29.40;88.60
3406;DHT22;10008;48.682;9.016;2023-08-12T09:52:53;29.10;90.00
3406;DHT22;10008;48.682;9.016;2023-08-12T09:55:20;28.90;90.50
3406;DHT22;10008;48.682;9.016;2023-08-12T09:57:50;28.80;90.70
3406;DHT22;10008;48.682;9.016;2023-08-12T10:00:16;28.70;91.80
3406;DHT22;10008;48.682;9.016;2023-08-12T10:02:48;28.50;92.70
3406;DHT22;10008;48.682;9.016;2023-08-12T10:05:21;28.50;93.00
3406;DHT22;10008;48.682;9.016;2023-08-12T10:07:48;28.60;92.10
3406;DHT22;10008;48.682;9.016;2023-08-12T10:10:15;29.00;92.60
3406;DHT22;10008;48.682;9.016;2023-08-12T10:12:41;29.00;92.40
3406;DHT22;10008;48.682;9.016;2023-08-12T10:15:07;29.00;92.90
3406;DHT22;10008;48.682;9.016;2023-08-12T10:17:34;28.90;92.50
3406;DHT22;10008;48.682;9.016;2023-08-12T10:20:04;28.90;92.80
3406;DHT22;10008;48.682;9.016;2023-08-12T10:22:30;29.10;93.10
3406;DHT22;10008;48.682;9.016;2023-08-12T10:25:02;29.30;91.10
3406;DHT22;10008;48.682;9.016;2023-08-12T10:27:28;29.70;91.50
3406;DHT22;10008;48.682;9.016;2023-08-12T10:29:57;30.40;90.80
3406;DHT22;10008;48.682;9.016;2023-08-12T10:32:24;30.50;90.20
3406;DHT22;10008;48.682;9.016;2023-08-12T10:35:00;30.00;90.90
3406;DHT22;10008;48.682;9.016;2023-08-12T10:37:26;29.40;89.60
3406;DHT22;10008;48.682;9.016;2023-08-12T10:39:53;29.20;90.30
3406;DHT22;10008;48.682;9.016;2023-08-12T10:42:42;29.30;90.60
3406;DHT22;10008;48.682;9.016;2023-08-12T10:45:08;29.80;90.70
3406;DHT22;10008;48.682;9.016;2023-08-12T10:47:43;31.10;86.20
3406;DHT22;10008;48.682;9.016;2023-08-12T10:50:20;32.20;87.10
3406;DHT22;10008;48.682;9.016;2023-08-12T10:52:47;32.60;83.80
3406;DHT22;10008;48.682;9.016;2023-08-12T10:55:20;32.70;83.60
3406;DHT22;10008;48.682;9.016;2023-08-12T10:57:47;32.70;82.60
3406;DHT22;10008;48.682;9.016;2023-08-12T11:00:33;31.90;81.40
3406;DHT22;10008;48.682;9.016;2023-08-12T11:03:00;31.10;84.60
3406;DHT22;10008;48.682;9.016;2023-08-12T11:05:37;30.90;84.90
3406;DHT22;10008;48.682;9.016;2023-08-12T11:08:05;32.00;85.80
3406;DHT22;10008;48.682;9.016;2023-08-12T11:10:32;33.30;82.70
3406;DHT22;10008;48.682;9.016;2023-08-12T11:12:59;33.80;80.60
3406;DHT22;10008;48.682;9.016;2023-08-12T11:15:36;33.40;78.40
3406;DHT22;10008;48.682;9.016;2023-08-12T11:18:16;33.10;80.40
3406;DHT22;10008;48.682;9.016;2023-08-12T11:20:43;32.60;82.10
3406;DHT22;10008;48.682;9.016;2023-08-12T11:23:09;31.80;85.10
3406;DHT22;10008;48.682;9.016;2023-08-12T11:25:38;31.20;88.00
3406;DHT22;10008;48.682;9.016;2023-08-12T11:28:05;30.50;90.20
3406;DHT22;10008;48.682;9.016;2023-08-12T11:30:32;31.20;88.00
3406;DHT22;10008;48.682;9.016;2023-08-12T11:32:58;32.10;88.60
3406;DHT22;10008;48.682;9.016;2023-08-12T11:35:25;32.70;83.60
3406;DHT22;10008;48.682;9.016;2023-08-12T11:37:53;32.40;83.60
3406;DHT22;10008;48.682;9.016;2023-08-12T11:40:19;31.40;85.80
3406;DHT22;10008;48.682;9.016;2023-08-12T11:42:47;31.30;87.70
3406;DHT22;10008;48.682;9.016;2023-08-12T11:45:15;30.80;89.40
3406;DHT22;10008;48.682;9.016;2023-08-12T11:47:42;31.40;87.70
3406;DHT22;10008;48.682;9.016;2023-08-12T11:50:11;32.60;86.90
3406;DHT22;10008;48.682;9.016;2023-08-12T11:52:37;32.80;82.30
3406;DHT22;10008;48.682;9.016;2023-08-12T11:55:05;32.10;85.90
3406;DHT22;10008;48.682;9.016;2023-08-12T11:57:32;31.80;86.40
3406;DHT22;10008;48.682;9.016;2023-08-12T12:00:04;31.20;87.10
3406;DHT22;10008;48.682;9.016;2023-08-12T12:02:54;30.30;90.30
3406;DHT22;10008;48.682;9.016;2023-08-12T12:05:26;29.60;90.80
3406;DHT22;10008;48.682;9.016;2023-08-12T12:07:52;29.10;92.50
3406;DHT22;10008;48.682;9.016;2023-08-12T12:10:29;28.60;92.60
3406;DHT22;10008;48.682;9.016;2023-08-12T12:12:55;28.20;94.00
3406;DHT22;10008;48.682;9.016;2023-08-12T12:15:21;27.90;93.00
3406;DHT22;10008;48.682;9.016;2023-08-12T12:17:49;27.80;94.00
3406;DHT22;10008;48.682;9.016;2023-08-12T12:20:15;27.40;98.40
3406;DHT22;10008;48.682;9.016;2023-08-12T12:22:43;26.80;99.90
3406;DHT22;10008;48.682;9.016;2023-08-12T12:25:13;26.00;99.90
3406;DHT22;10008;48.682;9.016;2023-08-12T12:27:40;25.60;99.90
3406;DHT22;10008;48.682;9.016;2023-08-12T12:30:08;25.20;99.90
3406;DHT22;10008;48.682;9.016;2023-08-12T12:32:35;24.90;99.90
3406;DHT22;10008;48.682;9.016;2023-08-12T12:35:01;24.80;99.90
3406;DHT22;10008;48.682;9.016;2023-08-12T12:37:27;24.70;99.90
3406;DHT22;10008;48.682;9.016;2023-08-12T12:39:53;24.50;99.90
3406;DHT22;10008;48.682;9.016;2023-08-12T12:42:18;24.40;99.90
3406;DHT22;10008;48.682;9.016;2023-08-12T12:44:44;24.20;99.90
3406;DHT22;10008;48.682;9.016;2023-08-12T12:47:10;24.30;99.90
3406;DHT22;10008;48.682;9.016;2023-08-12T12:49:38;24.10;99.90
3406;DHT22;10008;48.682;9.016;2023-08-12T12:52:04;24.00;99.90
3406;DHT22;10008;48.682;9.016;2023-08-12T12:54:30;24.00;99.90
3406;DHT22;10008;48.682;9.016;2023-08-12T12:56:56;24.00;99.90
3406;DHT22;10008;48.682;9.016;2023-08-12T12:59:22;24.10;99.90
3406;DHT22;10008;48.682;9.016;2023-08-12T13:01:48;24.20;99.90
3406;DHT22;10008;48.682;9.016;2023-08-12T13:04:14;24.20;99.90
3406;DHT22;10008;48.682;9.016;2023-08-12T13:06:40;24.10;99.90
3406;DHT22;10008;48.682;9.016;2023-08-12T13:09:06;24.00;99.90
3406;DHT22;10008;48.682;9.016;2023-08-12T13:11:33;23.90;99.90
3406;DHT22;10008;48.682;9.016;2023-08-12T13:14:03;23.70;99.90
3406;DHT22;10008;48.682;9.016;2023-08-12T13:16:29;23.80;99.90
3406;DHT22;10008;48.682;9.016;2023-08-12T13:18:55;23.70;99.90
3406;DHT22;10008;48.682;9.016;2023-08-12T13:21:24;23.70;99.90
3406;DHT22;10008;48.682;9.016;2023-08-12T13:23:50;23.70;99.90
3406;DHT22;10008;48.682;9.016;2023-08-12T13:26:16;23.80;99.90
3406;DHT22;10008;48.682;9.016;2023-08-12T13:28:42;24.00;99.90
3406;DHT22;10008;48.682;9.016;2023-08-12T13:31:08;24.20;99.90
3406;DHT22;10008;48.682;9.016;2023-08-12T13:33:34;24.40;99.90
3406;DHT22;10008;48.682;9.016;2023-08-12T13:35:59;24.90;99.90
3406;DHT22;10008;48.682;9.016;2023-08-12T13:38:25;25.70;99.90
3406;DHT22;10008;48.682;9.016;2023-08-12T13:40:51;26.40;99.90
3406;DHT22;10008;48.682;9.016;2023-08-12T13:43:17;27.30;99.90
3406;DHT22;10008;48.682;9.016;2023-08-12T13:45:42;27.80;99.90
3406;DHT22;10008;48.682;9.016;2023-08-12T13:48:08;28.20;99.90
3406;DHT22;10008;48.682;9.016;2023-08-12T13:50:34;28.10;99.90
3406;DHT22;10008;48.682;9.016;2023-08-12T13:52:59;27.70;99.90
3406;DHT22;10008;48.682;9.016;2023-08-12T13:55:26;27.80;99.90
3406;DHT22;10008;48.682;9.016;2023-08-12T13:57:52;27.60;99.90
3406;DHT22;10008;48.682;9.016;2023-08-12T14:00:18;27.80;99.90
3406;DHT22;10008;48.682;9.016;2023-08-12T14:02:44;28.20;99.90
3406;DHT22;10008;48.682;9.016;2023-08-12T14:05:11;28.20;99.90
3406;DHT22;10008;48.682;9.016;2023-08-12T14:07:36;28.70;99.90
3406;DHT22;10008;48.682;9.016;2023-08-12T14:10:03;29.50;99.90
3406;DHT22;10008;48.682;9.016;2023-08-12T14:12:29;29.60;99.90
3406;DHT22;10008;48.682;9.016;2023-08-12T14:14:55;29.80;99.90
3406;DHT22;10008;48.682;9.016;2023-08-12T14:17:21;30.10;99.90
3406;DHT22;10008;48.682;9.016;2023-08-12T14:19:49;30.10;99.90
3406;DHT22;10008;48.682;9.016;2023-08-12T14:22:16;30.10;99.90
3406;DHT22;10008;48.682;9.016;2023-08-12T14:24:42;30.20;99.90
3406;DHT22;10008;48.682;9.016;2023-08-12T14:27:10;30.20;99.60
3406;DHT22;10008;48.682;9.016;2023-08-12T14:29:35;30.00;99.90
3406;DHT22;10008;48.682;9.016;2023-08-12T14:32:01;29.70;99.40
3406;DHT22;10008;48.682;9.016;2023-08-12T14:34:27;29.50;99.70
3406;DHT22;10008;48.682;9.016;2023-08-12T14:36:53;29.30;98.30
3406;DHT22;10008;48.682;9.016;2023-08-12T14:39:19;29.10;99.90
3406;DHT22;10008;48.682;9.016;2023-08-12T14:41:45;28.80;99.90
3406;DHT22;10008;48.682;9.016;2023-08-12T14:44:10;28.70;99.90
3406;DHT22;10008;48.682;9.016;2023-08-12T14:46:36;28.80;99.90
3406;DHT22;10008;48.682;9.016;2023-08-12T14:49:02;28.80;99.70
3406;DHT22;10008;48.682;9.016;2023-08-12T14:51:27;28.90;99.40
3406;DHT22;10008;48.682;9.016;2023-08-12T14:53:55;28.80;99.20
3406;DHT22;10008;48.682;9.016;2023-08-12T14:56:21;28.60;98.60
3406;DHT22;10008;48.682;9.016;2023-08-12T14:58:47;28.50;99.70
3406;DHT22;10008;48.682;9.016;2023-08-12T15:01:12;28.50;99.90
3406;DHT22;10008;48.682;9.016;2023-08-12T15:03:38;28.50;99.90
3406;DHT22;10008;48.682;9.016;2023-08-12T15:06:04;28.50;98.90
3406;DHT22;10008;48.682;9.016;2023-08-12T15:08:31;28.50;99.90
3406;DHT22;10008;48.682;9.016;2023-08-12T15:10:57;28.30;99.90
3406;DHT22;10008;48.682;9.016;2023-08-12T15:13:24;28.20;99.90
3406;DHT22;10008;48.682;9.016;2023-08-12T15:15:50;28.30;99.70
3406;DHT22;10008;48.682;9.016;2023-08-12T15:18:17;28.40;99.90
3406;DHT22;10008;48.682;9.016;2023-08-12T15:20:43;28.50;99.90
3406;DHT22;10008;48.682;9.016;2023-08-12T15:23:09;28.50;99.20
3406;DHT22;10008;48.682;9.016;2023-08-12T15:25:34;28.40;99.90
3406;DHT22;10008;48.682;9.016;2023-08-12T15:28:00;28.30;99.90
3406;DHT22;10008;48.682;9.016;2023-08-12T15:30:26;28.00;99.90
3406;DHT22;10008;48.682;9.016;2023-08-12T15:32:53;27.80;99.90
3406;DHT22;10008;48.682;9.016;2023-08-12T15:35:19;27.50;99.90
3406;DHT22;10008;48.682;9.016;2023-08-12T15:37:44;27.30;99.90
3406;DHT22;10008;48.682;9.016;2023-08-12T15:40:10;27.10;99.90
3406;DHT22;10008;48.682;9.016;2023-08-12T15:42:37;26.90;99.90
3406;DHT22;10008;48.682;9.016;2023-08-12T15:45:02;26.70;99.90